Ehrhardt, South Carolina
Current Conditions -  °F | °C
As of 8:35 AM on Monday 22 Dec 2014 (Local Time) from KAQX Reporting Station
Overcast Overcast  
Wind Chill: 42°   Ceiling: 500
Heat Index: 45°   Visibility: 7mi
Dew Point: 45°   Wind: 5mph
Humidity: 100%   Direction: 20°NNE
Pressure: 30.07"   Gusts: NA
Location:  33.1°N, 81.01°W
Report Text: KAQX 221335Z AUTO 02004KT 7SM BKN005 BKN010 OVC018 07/07 A3007 RMK AO2
Loading
Personal Weather Stations






























Interactive Weather Map New forecast layout! Learn more

10-Day Weather Forecast

Advertisements
Track Severe Weather on mobile